Time;durP1;ratioP1;P1;durP2;ratioP2;P2;SDS_P1;SDS_P2;PMS_P1;PMS_P2;Temp;Humidity;BMP_temperature;BMP_pressure;BME280_temperature;BME280_humidity;BME280_pressure;Samples;Min_cycle;Max_cycle;Signal;HPM_P1;HPM_P2
2023/04/04 00:00:46;;;;;;;17.80;16.80;;;1.70;99.90;;;;;;5022836;28;20601;-68
2023/04/04 00:03:12;;;;;;;17.10;16.00;;;1.80;99.90;;;;;;5025081;28;20940;-66
2023/04/04 00:05:40;;;;;;;17.97;16.83;;;1.80;99.90;;;;;;5024863;28;20468;-69
2023/04/04 00:08:08;;;;;;;18.33;16.83;;;1.70;99.90;;;;;;5022600;28;20743;-69
2023/04/04 00:10:36;;;;;;;17.27;16.37;;;1.70;99.90;;;;;;5025690;28;20464;-66
2023/04/04 00:13:04;;;;;;;17.43;16.43;;;1.60;99.90;;;;;;5023329;28;20835;-68
2023/04/04 00:15:31;;;;;;;17.27;16.30;;;1.60;99.90;;;;;;5018698;28;20463;-69
2023/04/04 00:17:58;;;;;;;16.77;15.70;;;1.60;99.90;;;;;;5015465;28;20469;-70
2023/04/04 00:20:25;;;;;;;16.60;15.70;;;1.60;99.90;;;;;;5018916;28;20476;-67
2023/04/04 00:22:52;;;;;;;16.07;15.17;;;1.60;99.90;;;;;;5027242;28;20469;-68
2023/04/04 00:25:21;;;;;;;16.80;15.60;;;1.60;99.90;;;;;;5019465;28;20515;-67
2023/04/04 00:27:48;;;;;;;16.87;15.67;;;1.60;99.90;;;;;;5022079;28;20820;-68
2023/04/04 00:30:15;;;;;;;16.50;15.60;;;1.60;99.90;;;;;;5020707;28;20524;-69
2023/04/04 00:32:41;;;;;;;16.07;15.27;;;1.60;99.90;;;;;;5017101;28;20465;-67
2023/04/04 00:35:09;;;;;;;15.57;14.70;;;1.60;99.90;;;;;;5022344;28;20499;-67
2023/04/04 00:37:36;;;;;;;16.40;15.50;;;1.60;99.90;;;;;;5024572;28;20469;-70
2023/04/04 00:40:04;;;;;;;16.17;15.33;;;1.60;99.90;;;;;;5017556;28;20464;-69
2023/04/04 00:42:33;;;;;;;16.30;15.40;;;1.50;99.90;;;;;;5021396;28;21044;-68
2023/04/04 00:45:01;;;;;;;15.83;14.93;;;1.50;99.90;;;;;;5019831;28;20551;-67
2023/04/04 00:47:31;;;;;;;15.97;14.90;;;1.60;99.90;;;;;;5024306;28;21038;-68
2023/04/04 00:49:58;;;;;;;16.43;15.53;;;1.60;99.90;;;;;;5022299;28;20473;-67
2023/04/04 00:52:25;;;;;;;17.90;16.80;;;1.60;99.90;;;;;;5015147;28;21170;-67
2023/04/04 00:54:51;;;;;;;16.20;15.23;;;1.60;99.90;;;;;;5018807;28;20457;-69
2023/04/04 00:57:19;;;;;;;16.60;15.80;;;1.60;99.90;;;;;;5021695;28;20465;-69
2023/04/04 00:59:47;;;;;;;16.10;15.20;;;1.60;99.90;;;;;;5018800;28;20579;-67
2023/04/04 01:02:14;;;;;;;16.37;15.57;;;1.60;99.90;;;;;;5023188;28;20569;-69
2023/04/04 01:04:41;;;;;;;16.53;15.50;;;1.60;99.90;;;;;;5017498;28;20881;-67
2023/04/04 01:07:09;;;;;;;15.77;15.03;;;1.60;99.90;;;;;;5018741;28;20877;-68
2023/04/04 01:09:36;;;;;;;17.47;16.47;;;1.60;99.90;;;;;;5021190;28;20751;-69
2023/04/04 01:12:03;;;;;;;17.30;16.00;;;1.60;99.90;;;;;;5020676;28;20475;-69
2023/04/04 01:14:30;;;;;;;17.17;15.90;;;1.60;99.90;;;;;;5022711;28;20890;-66
2023/04/04 01:17:01;;;;;;;16.87;15.87;;;1.60;99.90;;;;;;5018793;28;20480;-67
2023/04/04 01:19:32;;;;;;;16.90;15.87;;;1.60;99.90;;;;;;5020629;28;20461;-68
2023/04/04 01:22:02;;;;;;;16.70;15.80;;;1.60;99.90;;;;;;5019444;28;20883;-66
2023/04/04 01:24:33;;;;;;;15.47;14.67;;;1.60;99.90;;;;;;5012753;28;20519;-67
2023/04/04 01:27:01;;;;;;;15.93;15.03;;;1.60;99.90;;;;;;5021057;28;20580;-67
2023/04/04 01:29:29;;;;;;;16.47;15.23;;;1.50;99.90;;;;;;5021823;28;20467;-69
2023/04/04 01:32:00;;;;;;;16.73;15.53;;;1.50;99.90;;;;;;5018912;28;20468;-69
2023/04/04 01:34:32;;;;;;;16.47;15.27;;;1.50;99.90;;;;;;5021422;28;20465;-69
2023/04/04 01:37:07;;;;;;;16.13;15.13;;;1.50;99.90;;;;;;5022282;28;20550;-68
2023/04/04 01:39:39;;;;;;;17.23;16.13;;;1.50;99.90;;;;;;5017545;28;20458;-70
2023/04/04 01:42:09;;;;;;;16.80;15.60;;;1.40;99.90;;;;;;5014482;28;20500;-69
2023/04/04 01:44:37;;;;;;;16.13;15.13;;;1.40;99.90;;;;;;5018605;28;20603;-69
2023/04/04 01:47:07;;;;;;;16.73;15.23;;;1.40;99.90;;;;;;5016336;28;21071;-67
2023/04/04 01:49:34;;;;;;;16.37;15.37;;;1.40;99.90;;;;;;5016870;28;21074;-69
2023/04/04 01:52:02;;;;;;;17.07;15.93;;;1.40;99.90;;;;;;5015826;28;20540;-67
2023/04/04 01:54:31;;;;;;;17.63;15.90;;;1.30;99.90;;;;;;5021582;28;20972;-69
2023/04/04 01:56:58;;;;;;;15.97;15.17;;;1.20;99.90;;;;;;5020505;28;20971;-66
2023/04/04 01:59:27;;;;;;;16.60;15.50;;;1.00;99.90;;;;;;5021325;28;20556;-66
2023/04/04 02:01:55;;;;;;;17.57;15.80;;;0.90;99.90;;;;;;5022344;28;20603;-66
2023/04/04 02:04:22;;;;;;;17.27;16.07;;;0.70;99.90;;;;;;5024275;28;20530;-69
2023/04/04 02:06:49;;;;;;;17.00;16.10;;;0.60;99.90;;;;;;5016960;28;20468;-68
2023/04/04 02:09:15;;;;;;;17.40;16.30;;;0.50;99.90;;;;;;5017329;28;20551;-68
2023/04/04 02:11:42;;;;;;;16.60;15.53;;;0.40;99.90;;;;;;5019072;28;20464;-67
2023/04/04 02:14:09;;;;;;;17.30;16.00;;;0.30;99.90;;;;;;5021511;28;20461;-68
2023/04/04 02:16:37;;;;;;;16.90;15.80;;;0.20;99.90;;;;;;5019819;28;20960;-69
2023/04/04 02:19:05;;;;;;;16.83;15.83;;;0.10;99.90;;;;;;5016917;28;21003;-67
2023/04/04 02:21:32;;;;;;;16.00;15.20;;;0.00;99.90;;;;;;5020397;28;20557;-69
2023/04/04 02:23:59;;;;;;;16.60;15.60;;;0.00;99.90;;;;;;5011820;28;21217;-69
2023/04/04 02:26:26;;;;;;;16.37;15.47;;;-0.10;99.90;;;;;;5016251;28;20526;-69
2023/04/04 02:28:52;;;;;;;17.17;16.07;;;-0.10;99.90;;;;;;5019169;28;20565;-69
2023/04/04 02:31:19;;;;;;;17.03;16.00;;;-0.20;99.90;;;;;;5019612;28;20466;-68
2023/04/04 02:33:47;;;;;;;16.80;15.80;;;-0.30;99.90;;;;;;5016615;28;20635;-69
2023/04/04 02:36:14;;;;;;;17.07;16.10;;;-0.40;99.90;;;;;;5014094;28;20487;-67
2023/04/04 02:38:41;;;;;;;16.20;15.20;;;-0.40;99.90;;;;;;5020528;28;20483;-70
2023/04/04 02:41:08;;;;;;;16.40;15.50;;;-0.50;99.90;;;;;;5018407;28;20491;-69
2023/04/04 02:43:35;;;;;;;17.20;16.03;;;-0.50;99.90;;;;;;5020878;28;20464;-67
2023/04/04 02:46:02;;;;;;;17.07;16.07;;;-0.50;99.90;;;;;;5017089;28;20492;-67
2023/04/04 02:48:30;;;;;;;16.37;15.57;;;-0.60;99.90;;;;;;5014153;28;20472;-68
2023/04/04 02:50:59;;;;;;;17.13;16.13;;;-0.70;99.90;;;;;;5018742;28;20575;-69
2023/04/04 02:53:26;;;;;;;15.87;14.97;;;-0.70;99.90;;;;;;5021721;28;20467;-68
2023/04/04 02:55:53;;;;;;;16.43;15.27;;;-0.70;99.90;;;;;;5022646;28;20456;-68
2023/04/04 02:58:20;;;;;;;16.27;15.40;;;-0.70;99.90;;;;;;5018907;28;20457;-69
2023/04/04 03:00:53;;;;;;;16.77;15.63;;;-0.60;99.90;;;;;;5018499;28;20564;-68
2023/04/04 03:03:20;;;;;;;16.20;15.30;;;-0.60;99.90;;;;;;5019429;28;20676;-69
2023/04/04 03:05:48;;;;;;;16.67;15.57;;;-0.60;99.90;;;;;;5022809;28;20471;-69
2023/04/04 03:08:16;;;;;;;17.30;15.77;;;-0.40;99.90;;;;;;5024294;28;20511;-67
2023/04/04 03:10:45;;;;;;;15.80;14.80;;;-0.30;99.90;;;;;;5016366;28;20992;-69
2023/04/04 03:13:12;;;;;;;16.43;15.40;;;-0.10;99.90;;;;;;5019548;28;20458;-69
2023/04/04 03:15:39;;;;;;;16.40;15.23;;;-0.10;99.90;;;;;;5021300;28;20519;-69
2023/04/04 03:18:07;;;;;;;16.33;15.33;;;-0.10;99.90;;;;;;5017041;28;20471;-68
2023/04/04 03:20:34;;;;;;;16.13;15.10;;;-0.10;99.90;;;;;;5016080;28;20883;-69
2023/04/04 03:23:01;;;;;;;15.97;14.77;;;0.00;99.90;;;;;;5022074;28;20495;-68
2023/04/04 03:25:29;;;;;;;17.20;15.60;;;-0.10;99.90;;;;;;5017308;28;20468;-68
2023/04/04 03:27:57;;;;;;;16.43;15.50;;;-0.10;99.90;;;;;;5019349;28;20483;-68
2023/04/04 03:30:24;;;;;;;16.60;15.70;;;-0.30;99.90;;;;;;5018587;28;20507;-69
2023/04/04 03:32:51;;;;;;;16.30;15.40;;;-0.40;99.90;;;;;;5019300;28;20468;-67
2023/04/04 03:35:18;;;;;;;16.90;15.90;;;-0.50;99.90;;;;;;5014822;28;20519;-69
2023/04/04 03:37:45;;;;;;;16.63;15.63;;;-0.60;99.90;;;;;;5021768;28;20526;-69
2023/04/04 03:40:13;;;;;;;16.50;15.70;;;-0.80;99.90;;;;;;5017896;28;20475;-68
2023/04/04 03:42:42;;;;;;;16.63;15.33;;;-0.90;99.90;;;;;;5018822;28;20987;-69
2023/04/04 03:45:09;;;;;;;17.90;16.60;;;-0.90;99.90;;;;;;5023108;28;20471;-68
2023/04/04 03:47:36;;;;;;;16.77;15.60;;;-0.90;99.90;;;;;;5017842;28;20963;-69
2023/04/04 03:50:04;;;;;;;17.13;15.80;;;-0.90;99.90;;;;;;5019167;28;21007;-69
2023/04/04 03:52:31;;;;;;;16.40;15.40;;;-0.90;99.90;;;;;;5021364;28;20459;-68
2023/04/04 03:54:57;;;;;;;16.77;15.67;;;-0.90;99.90;;;;;;5018166;28;21025;-68
2023/04/04 03:57:26;;;;;;;16.17;15.37;;;-0.90;99.90;;;;;;5017132;28;20972;-69
2023/04/04 03:59:54;;;;;;;17.10;16.00;;;-1.00;99.90;;;;;;5022878;28;20471;-69
2023/04/04 04:02:21;;;;;;;15.50;14.60;;;-1.10;99.90;;;;;;5021751;28;20497;-69
2023/04/04 04:04:48;;;;;;;16.97;15.97;;;-1.20;99.90;;;;;;5020047;28;21021;-69
2023/04/04 04:07:15;;;;;;;16.97;15.97;;;-1.20;99.90;;;;;;5011894;28;20468;-69
2023/04/04 04:09:42;;;;;;;17.23;16.10;;;-1.20;99.90;;;;;;5016320;28;20473;-69
2023/04/04 04:12:09;;;;;;;16.87;15.60;;;-1.20;99.90;;;;;;5018425;28;20457;-69
2023/04/04 04:14:36;;;;;;;17.50;16.20;;;-1.20;99.90;;;;;;5021348;28;20967;-69
2023/04/04 04:17:04;;;;;;;16.97;15.77;;;-1.10;99.90;;;;;;5017357;28;20518;-69
2023/04/04 04:19:31;;;;;;;17.20;16.10;;;-1.00;99.90;;;;;;5018752;28;20471;-69
2023/04/04 04:21:58;;;;;;;16.50;15.50;;;-1.00;99.90;;;;;;5020713;28;20487;-69
2023/04/04 04:24:25;;;;;;;17.10;15.90;;;-1.00;99.90;;;;;;5023416;28;20463;-68
2023/04/04 04:26:51;;;;;;;17.10;15.90;;;-1.00;99.90;;;;;;5018913;28;20904;-69
2023/04/04 04:29:18;;;;;;;16.10;15.20;;;-1.00;99.90;;;;;;5023771;28;20463;-69
2023/04/04 04:31:45;;;;;;;17.40;16.30;;;-1.10;99.90;;;;;;5021250;28;20491;-69
2023/04/04 04:34:14;;;;;;;17.70;16.60;;;-1.10;99.90;;;;;;5019693;28;20469;-69
2023/04/04 04:36:41;;;;;;;17.77;16.57;;;-1.20;99.90;;;;;;5023389;28;20506;-69
2023/04/04 04:39:08;;;;;;;17.80;16.50;;;-1.30;99.90;;;;;;5020622;28;20907;-69
2023/04/04 04:41:35;;;;;;;17.20;16.03;;;-1.40;99.90;;;;;;5018016;28;20484;-70
2023/04/04 04:44:02;;;;;;;17.93;16.60;;;-1.40;99.90;;;;;;5025451;28;20975;-69
2023/04/04 04:46:29;;;;;;;18.60;17.20;;;-1.40;99.90;;;;;;5021032;28;20475;-70
2023/04/04 04:48:55;;;;;;;17.30;15.97;;;-1.50;99.90;;;;;;5024686;28;20473;-70
2023/04/04 04:51:24;;;;;;;17.67;16.57;;;-1.50;99.90;;;;;;5016977;28;20503;-69
2023/04/04 04:53:51;;;;;;;17.20;16.10;;;-1.60;99.90;;;;;;5019345;28;20473;-69
2023/04/04 04:56:17;;;;;;;17.77;16.47;;;-1.60;99.90;;;;;;5024117;28;20482;-69
2023/04/04 04:58:46;;;;;;;17.80;16.40;;;-1.60;99.90;;;;;;5022928;28;20460;-69
2023/04/04 05:01:13;;;;;;;16.33;15.13;;;-1.60;99.90;;;;;;5023179;28;20472;-69
2023/04/04 05:03:40;;;;;;;16.40;15.10;;;-1.60;99.90;;;;;;5022441;28;21383;-69
2023/04/04 05:06:06;;;;;;;16.57;15.57;;;-1.60;99.90;;;;;;5025964;28;21107;-69
2023/04/04 05:08:34;;;;;;;17.60;16.50;;;-1.60;99.90;;;;;;5017722;28;20883;-69
2023/04/04 05:11:01;;;;;;;17.37;16.37;;;-1.60;99.90;;;;;;5020130;28;20473;-68
2023/04/04 05:13:28;;;;;;;16.90;15.90;;;-1.50;99.90;;;;;;5023307;28;20828;-69
2023/04/04 05:15:55;;;;;;;15.53;14.63;;;-1.50;99.90;;;;;;5022854;28;20473;-69
2023/04/04 05:18:22;;;;;;;16.70;15.60;;;-1.50;99.90;;;;;;5021045;28;22106;-68
2023/04/04 05:20:53;;;;;;;18.03;16.50;;;-1.40;99.90;;;;;;5023602;28;20477;-69
2023/04/04 05:23:21;;;;;;;17.17;16.10;;;-1.40;99.90;;;;;;5023616;28;20502;-69
2023/04/04 05:25:52;;;;;;;17.47;15.50;;;-1.40;99.90;;;;;;5017505;28;20469;-69
2023/04/04 05:28:19;;;;;;;15.60;14.50;;;-1.40;99.90;;;;;;5021471;28;20830;-69
2023/04/04 05:30:46;;;;;;;16.53;15.23;;;-1.50;99.90;;;;;;5019644;28;20981;-69
2023/04/04 05:33:13;;;;;;;17.40;16.03;;;-1.50;99.90;;;;;;5024196;28;20474;-70
2023/04/04 05:35:41;;;;;;;17.03;15.70;;;-1.50;99.90;;;;;;5019720;28;20590;-69
2023/04/04 05:38:07;;;;;;;16.67;15.37;;;-1.50;99.90;;;;;;5022798;28;20566;-70
2023/04/04 05:40:35;;;;;;;16.53;15.40;;;-1.50;99.90;;;;;;5019950;28;20456;-69
2023/04/04 05:43:04;;;;;;;16.20;15.20;;;-1.50;99.90;;;;;;5021233;28;20494;-69
2023/04/04 05:45:31;;;;;;;17.27;16.17;;;-1.60;99.90;;;;;;5024736;28;20995;-69
2023/04/04 05:47:57;;;;;;;17.70;16.10;;;-1.60;99.90;;;;;;5022576;28;20551;-69
2023/04/04 05:50:25;;;;;;;17.97;16.53;;;-1.60;99.90;;;;;;5021042;28;20460;-70
2023/04/04 05:52:55;;;;;;;16.63;15.33;;;-1.60;99.90;;;;;;5019728;28;20465;-69
2023/04/04 05:55:23;;;;;;;17.17;15.90;;;-1.60;99.90;;;;;;5018409;28;20987;-70
2023/04/04 05:57:50;;;;;;;17.00;15.40;;;-1.60;99.90;;;;;;5022933;28;20993;-69
2023/04/04 06:00:19;;;;;;;17.80;16.63;;;-1.60;99.90;;;;;;5023716;28;20473;-69
2023/04/04 06:02:46;;;;;;;17.47;16.23;;;-1.50;99.90;;;;;;5021322;28;20825;-69
2023/04/04 06:05:14;;;;;;;16.50;15.50;;;-1.30;99.90;;;;;;5023274;28;20459;-69
2023/04/04 06:07:41;;;;;;;17.53;15.77;;;-1.20;99.90;;;;;;5018847;28;20469;-69
2023/04/04 06:10:09;;;;;;;19.60;17.60;;;-1.00;99.90;;;;;;5024356;28;20489;-70
2023/04/04 06:12:36;;;;;;;16.90;15.70;;;-1.00;99.90;;;;;;5026140;28;20471;-69
2023/04/04 06:15:02;;;;;;;17.43;16.17;;;-0.90;99.90;;;;;;5026318;28;20497;-69
2023/04/04 06:17:31;;;;;;;17.47;16.40;;;-0.70;99.90;;;;;;5021767;28;20461;-68
2023/04/04 06:19:57;;;;;;;17.57;16.33;;;-0.60;99.90;;;;;;5025009;28;20511;-69
2023/04/04 06:22:25;;;;;;;18.20;17.10;;;-0.50;99.90;;;;;;5022366;28;20846;-69
2023/04/04 06:24:52;;;;;;;19.50;17.30;;;-0.40;99.90;;;;;;5019867;28;20464;-69
2023/04/04 06:27:18;;;;;;;19.33;17.67;;;-0.20;99.90;;;;;;5024225;28;20468;-69
2023/04/04 06:29:46;;;;;;;18.40;16.60;;;-0.10;99.90;;;;;;5025834;28;20457;-69
2023/04/04 06:32:14;;;;;;;21.13;17.83;;;0.00;99.90;;;;;;5021169;28;20517;-69
2023/04/04 06:34:44;;;;;;;20.87;19.30;;;0.10;99.90;;;;;;5020469;28;20533;-69
2023/04/04 06:37:11;;;;;;;20.47;18.67;;;0.30;99.90;;;;;;5017659;28;20524;-69
2023/04/04 06:39:38;;;;;;;20.13;18.33;;;0.50;99.90;;;;;;5019222;28;20465;-69
2023/04/04 06:42:05;;;;;;;20.20;18.10;;;0.60;99.90;;;;;;5016548;28;20859;-69
2023/04/04 06:44:33;;;;;;;19.60;17.83;;;0.60;99.90;;;;;;5026287;28;20550;-70
2023/04/04 06:47:00;;;;;;;18.37;17.03;;;0.80;99.90;;;;;;5021216;28;20480;-68
2023/04/04 06:49:27;;;;;;;19.30;17.80;;;1.00;99.90;;;;;;5018056;28;21051;-70
2023/04/04 06:51:55;;;;;;;17.50;16.23;;;1.10;99.90;;;;;;5016358;28;20469;-70
2023/04/04 06:54:23;;;;;;;19.20;17.80;;;1.20;99.90;;;;;;5019157;28;20461;-69
2023/04/04 06:56:50;;;;;;;18.67;17.13;;;1.40;99.90;;;;;;5022629;28;20461;-68
2023/04/04 06:59:17;;;;;;;18.33;17.23;;;1.70;99.90;;;;;;5022441;28;20556;-70
2023/04/04 07:01:45;;;;;;;18.87;17.43;;;1.80;99.90;;;;;;5013618;28;20461;-68
2023/04/04 07:04:12;;;;;;;18.83;17.43;;;2.00;99.90;;;;;;5012843;28;20543;-69
2023/04/04 07:06:38;;;;;;;20.27;18.63;;;2.10;99.90;;;;;;5015203;28;20471;-70
2023/04/04 07:09:07;;;;;;;19.67;18.27;;;2.30;99.90;;;;;;5018509;28;20472;-67
2023/04/04 07:11:34;;;;;;;21.20;19.50;;;2.40;99.90;;;;;;5020498;28;20819;-70
2023/04/04 07:14:01;;;;;;;18.87;17.67;;;2.60;99.90;;;;;;5020081;28;20463;-70
2023/04/04 07:16:28;;;;;;;19.00;17.80;;;2.70;99.90;;;;;;5019739;28;20461;-68
2023/04/04 07:18:56;;;;;;;18.87;17.57;;;2.80;99.90;;;;;;5019322;28;20461;-67
2023/04/04 07:21:23;;;;;;;19.57;18.13;;;3.00;99.90;;;;;;5021974;28;20993;-68
2023/04/04 07:23:50;;;;;;;19.43;18.23;;;3.10;99.90;;;;;;5020804;28;21011;-67
2023/04/04 07:26:18;;;;;;;20.17;18.33;;;3.20;99.90;;;;;;5018969;28;20538;-68
2023/04/04 07:28:46;;;;;;;19.33;17.90;;;3.40;99.90;;;;;;5016499;28;20882;-70
2023/04/04 07:31:13;;;;;;;19.03;17.90;;;3.60;99.90;;;;;;5020476;28;20462;-71
2023/04/04 07:33:40;;;;;;;19.97;18.30;;;3.60;99.90;;;;;;5019774;28;20466;-70
2023/04/04 07:36:07;;;;;;;18.80;17.70;;;3.60;99.90;;;;;;5023039;28;20483;-69
2023/04/04 07:38:35;;;;;;;18.83;17.73;;;3.70;99.90;;;;;;5018290;28;20458;-70
2023/04/04 07:41:01;;;;;;;20.20;18.57;;;3.60;99.90;;;;;;5017285;28;20473;-68
2023/04/04 07:43:30;;;;;;;18.90;17.80;;;3.90;99.90;;;;;;5018128;28;20504;-69
2023/04/04 07:45:57;;;;;;;19.43;18.20;;;4.00;99.90;;;;;;5022164;28;20592;-68
2023/04/04 07:48:24;;;;;;;19.90;18.50;;;4.10;99.90;;;;;;5019394;28;20885;-70
2023/04/04 07:50:51;;;;;;;19.90;18.60;;;4.40;99.90;;;;;;5016958;28;20527;-67
2023/04/04 07:53:17;;;;;;;20.23;19.00;;;4.40;99.90;;;;;;5020006;28;20840;-67
2023/04/04 07:55:44;;;;;;;19.70;18.40;;;4.30;99.90;;;;;;5024355;28;20807;-68
2023/04/04 07:58:11;;;;;;;19.60;18.30;;;4.60;99.90;;;;;;5022036;28;20460;-69
2023/04/04 08:00:39;;;;;;;19.73;18.43;;;4.80;99.90;;;;;;5023673;28;20480;-69
2023/04/04 08:03:06;;;;;;;19.83;18.53;;;4.90;99.90;;;;;;5027403;28;20488;-68
2023/04/04 08:05:33;;;;;;;20.37;19.00;;;4.80;99.90;;;;;;5025460;28;20461;-67
2023/04/04 08:08:00;;;;;;;19.93;18.63;;;4.60;99.90;;;;;;5022953;28;20468;-68
2023/04/04 08:10:27;;;;;;;19.30;17.93;;;4.80;99.90;;;;;;5019733;28;20503;-67
2023/04/04 08:12:53;;;;;;;19.73;18.30;;;5.20;99.90;;;;;;5022358;28;20462;-70
2023/04/04 08:15:21;;;;;;;19.47;18.23;;;5.50;99.90;;;;;;5023757;28;20476;-69
2023/04/04 08:17:49;;;;;;;18.80;17.77;;;5.50;99.90;;;;;;5023363;28;20471;-69
2023/04/04 08:20:17;;;;;;;19.70;18.10;;;5.50;99.90;;;;;;5021712;28;20556;-67
2023/04/04 08:22:43;;;;;;;18.87;17.83;;;5.30;99.90;;;;;;5020761;28;20475;-68
2023/04/04 08:25:11;;;;;;;18.80;17.80;;;5.50;99.90;;;;;;5017691;28;20460;-70
2023/04/04 08:27:42;;;;;;;19.87;18.57;;;5.80;99.90;;;;;;5015717;28;20533;-68
2023/04/04 08:30:10;;;;;;;20.07;18.20;;;6.30;99.90;;;;;;5021157;28;20479;-68
2023/04/04 08:32:37;;;;;;;19.47;18.07;;;6.50;99.90;;;;;;5022234;28;20465;-70
2023/04/04 08:35:05;;;;;;;19.90;18.40;;;6.60;99.30;;;;;;5024012;28;20468;-68
2023/04/04 08:37:34;;;;;;;19.30;18.10;;;6.20;97.10;;;;;;5024257;28;20463;-68
2023/04/04 08:40:01;;;;;;;19.13;17.90;;;6.20;97.30;;;;;;5019867;28;20831;-70
2023/04/04 08:42:31;;;;;;;18.70;17.50;;;6.30;97.10;;;;;;5021530;28;20865;-68
2023/04/04 08:45:02;;;;;;;19.10;18.10;;;6.40;97.20;;;;;;5020836;28;21022;-69
2023/04/04 08:47:31;;;;;;;18.60;17.53;;;6.50;97.30;;;;;;5019732;28;20482;-68
2023/04/04 08:50:00;;;;;;;18.93;17.70;;;6.60;97.70;;;;;;5023358;28;20711;-68
2023/04/04 08:52:30;;;;;;;19.60;18.43;;;6.80;96.30;;;;;;5022580;28;20817;-69
2023/04/04 08:54:57;;;;;;;19.23;18.03;;;6.90;95.10;;;;;;5017962;28;20559;-69
2023/04/04 08:57:24;;;;;;;18.73;17.70;;;6.50;94.60;;;;;;5019746;28;20887;-69
2023/04/04 08:59:51;;;;;;;19.03;17.90;;;6.60;94.60;;;;;;5020362;28;21015;-70
2023/04/04 09:02:24;;;;;;;18.93;17.70;;;6.40;93.10;;;;;;5022092;28;20910;-68
2023/04/04 09:04:53;;;;;;;18.87;17.97;;;6.80;94.30;;;;;;5018955;28;20567;-68
2023/04/04 09:07:21;;;;;;;19.70;18.40;;;7.20;95.30;;;;;;5016973;28;21387;-70
2023/04/04 09:09:50;;;;;;;19.57;18.37;;;7.40;93.90;;;;;;5012394;28;20834;-68
2023/04/04 09:12:19;;;;;;;19.33;17.97;;;7.90;93.70;;;;;;5019229;28;20461;-68
2023/04/04 09:14:47;;;;;;;18.93;17.73;;;7.50;90.70;;;;;;5020856;28;20474;-70
2023/04/04 09:17:14;;;;;;;19.60;18.40;;;7.50;94.10;;;;;;5024708;28;20974;-69
2023/04/04 09:19:41;;;;;;;19.37;18.07;;;8.00;94.30;;;;;;5021575;28;20522;-69
2023/04/04 09:22:08;;;;;;;19.90;18.37;;;8.20;92.10;;;;;;5018842;28;20470;-70
2023/04/04 09:24:39;;;;;;;20.37;18.80;;;8.90;88.30;;;;;;5018891;28;20488;-70
2023/04/04 09:27:09;;;;;;;20.53;19.10;;;9.20;88.20;;;;;;5019955;28;20457;-69
2023/04/04 09:29:37;;;;;;;19.83;18.73;;;10.00;84.50;;;;;;5019904;28;20477;-69
2023/04/04 09:32:07;;;;;;;19.70;18.50;;;10.90;80.10;;;;;;5023072;28;20475;-69
2023/04/04 09:34:34;;;;;;;18.80;17.90;;;11.10;74.80;;;;;;5022068;28;20465;-69
2023/04/04 09:37:03;;;;;;;19.70;18.30;;;11.70;75.60;;;;;;5015157;28;20515;-70
2023/04/04 09:39:30;;;;;;;19.70;18.53;;;11.90;69.70;;;;;;5017610;28;20815;-68
2023/04/04 09:41:58;;;;;;;18.73;17.83;;;11.10;69.10;;;;;;5020986;28;20871;-68
2023/04/04 09:44:28;;;;;;;19.33;18.23;;;11.00;68.50;;;;;;5022632;28;20501;-68
2023/04/04 09:47:22;;;;;;;18.80;17.70;;;11.90;66.80;;;;;;5022213;28;20465;-68
2023/04/04 09:49:49;;;;;;;18.40;17.50;;;12.50;67.90;;;;;;5019427;28;20465;-68
2023/04/04 09:52:18;;;;;;;18.90;17.80;;;13.00;61.70;;;;;;5018999;28;20763;-68
2023/04/04 09:54:45;;;;;;;18.67;17.50;;;13.00;59.10;;;;;;5014276;28;20461;-69
2023/04/04 09:57:12;;;;;;;18.27;17.00;;;12.60;56.00;;;;;;5020635;28;20839;-68
2023/04/04 09:59:42;;;;;;;18.23;17.13;;;12.60;55.80;;;;;;5023475;28;20474;-67
2023/04/04 10:02:10;;;;;;;17.07;16.17;;;12.40;57.30;;;;;;5023721;28;20564;-68
2023/04/04 10:04:37;;;;;;;18.83;17.67;;;12.70;54.20;;;;;;5013532;28;20999;-68
2023/04/04 10:07:05;;;;;;;18.67;17.50;;;11.90;53.50;;;;;;5017775;28;20472;-69
2023/04/04 10:09:32;;;;;;;18.60;17.47;;;12.20;60.10;;;;;;5013906;28;20468;-68
2023/04/04 10:12:08;;;;;;;17.73;16.73;;;13.20;57.70;;;;;;5013576;28;20484;-69
2023/04/04 10:14:35;;;;;;;18.47;17.37;;;13.80;54.20;;;;;;5020159;28;20987;-69
2023/04/04 10:17:09;;;;;;;18.10;17.00;;;13.90;55.50;;;;;;5019466;28;20463;-68
2023/04/04 10:19:37;;;;;;;18.93;17.93;;;14.70;51.60;;;;;;5024443;28;20543;-69
2023/04/04 10:22:04;;;;;;;18.40;17.40;;;14.30;52.40;;;;;;5020406;28;20492;-70
2023/04/04 10:24:31;;;;;;;18.63;17.50;;;14.40;51.00;;;;;;5020664;28;20492;-69
2023/04/04 10:26:58;;;;;;;19.00;17.50;;;13.80;49.40;;;;;;5021825;28;20465;-69
2023/04/04 10:29:25;;;;;;;19.13;17.93;;;13.80;50.00;;;;;;5015993;28;20800;-70
2023/04/04 10:31:59;;;;;;;17.87;16.87;;;13.10;47.40;;;;;;5025730;28;20551;-69
2023/04/04 10:34:32;;;;;;;18.10;17.10;;;12.80;50.50;;;;;;5015069;28;20990;-70
2023/04/04 10:37:07;;;;;;;17.90;16.90;;;13.00;50.50;;;;;;5018612;28;20491;-69
2023/04/04 10:39:38;;;;;;;19.60;18.20;;;13.20;49.90;;;;;;5015350;28;20461;-69
2023/04/04 10:42:06;;;;;;;18.40;17.40;;;12.80;47.10;;;;;;5021599;28;21122;-70
2023/04/04 10:44:38;;;;;;;17.80;16.80;;;12.20;48.60;;;;;;5023324;28;20491;-68
2023/04/04 10:47:16;;;;;;;19.40;18.13;;;12.40;51.80;;;;;;5017929;28;20998;-69
2023/04/04 10:49:46;;;;;;;20.00;17.67;;;12.60;47.10;;;;;;5017620;28;20531;-70
2023/04/04 10:52:14;;;;;;;20.10;18.63;;;13.20;47.80;;;;;;5015156;28;20539;-70
2023/04/04 10:54:42;;;;;;;18.13;17.00;;;13.40;52.60;;;;;;5016818;28;20834;-70
2023/04/04 10:57:10;;;;;;;19.23;17.93;;;14.30;50.30;;;;;;5018510;28;20469;-68
2023/04/04 10:59:56;;;;;;;18.10;16.90;;;14.60;46.80;;;;;;5020102;28;20464;-70
2023/04/04 11:02:44;;;;;;;18.13;16.90;;;13.40;45.00;;;;;;5021563;28;20560;-70
2023/04/04 11:05:15;;;;;;;17.60;16.60;;;14.00;47.60;;;;;;5020637;28;20493;-69
2023/04/04 11:07:45;;;;;;;17.47;16.47;;;14.80;45.50;;;;;;5023721;28;20468;-69
2023/04/04 11:10:21;;;;;;;18.40;17.30;;;14.40;45.00;;;;;;5020665;28;20871;-69
2023/04/04 11:12:53;;;;;;;18.60;17.50;;;15.10;45.00;;;;;;5019026;28;20514;-69
2023/04/04 11:15:22;;;;;;;17.40;16.40;;;14.30;44.10;;;;;;5018860;28;20461;-69
2023/04/04 11:17:57;;;;;;;17.80;16.80;;;13.80;44.00;;;;;;5019856;28;20495;-69
2023/04/04 11:20:30;;;;;;;17.97;16.87;;;15.10;43.50;;;;;;5021971;28;20457;-69
2023/04/04 11:23:08;;;;;;;19.10;17.87;;;15.10;42.70;;;;;;5017175;28;20461;-69
2023/04/04 11:25:39;;;;;;;17.87;16.93;;;16.30;42.90;;;;;;5019198;28;20492;-70
2023/04/04 11:28:23;;;;;;;18.87;17.27;;;16.70;40.90;;;;;;5020399;28;20460;-70
2023/04/04 11:31:28;;;;;;;18.00;16.70;;;15.70;39.10;;;;;;5020467;28;20464;-69
2023/04/04 11:33:58;;;;;;;17.80;16.70;;;15.60;45.70;;;;;;5023586;28;20492;-70
2023/04/04 11:36:50;;;;;;;18.70;17.30;;;16.30;44.30;;;;;;5024169;28;20520;-70
2023/04/04 11:39:24;;;;;;;18.23;17.20;;;16.20;41.00;;;;;;5017509;28;20465;-70
2023/04/04 11:41:54;;;;;;;18.33;17.13;;;15.90;41.80;;;;;;5021773;28;20591;-71
2023/04/04 11:44:23;;;;;;;18.00;16.80;;;16.50;40.00;;;;;;5023435;28;20875;-71
2023/04/04 11:46:55;;;;;;;18.97;17.33;;;16.90;38.70;;;;;;5024155;28;20476;-70
2023/04/04 11:49:28;;;;;;;17.77;16.77;;;16.80;39.70;;;;;;5024527;28;20467;-70
2023/04/04 11:51:57;;;;;;;18.73;17.60;;;16.90;39.50;;;;;;5024517;28;20563;-70
2023/04/04 11:54:24;;;;;;;18.77;17.40;;;16.30;37.30;;;;;;5023380;28;21010;-70
2023/04/04 11:56:52;;;;;;;18.40;17.20;;;16.60;35.00;;;;;;5024206;28;20861;-71
2023/04/04 11:59:21;;;;;;;17.80;16.70;;;15.90;35.70;;;;;;5024080;28;20807;-71
2023/04/04 12:01:48;;;;;;;17.83;16.83;;;16.00;38.00;;;;;;5024455;28;20850;-70
2023/04/04 12:04:18;;;;;;;18.47;17.07;;;16.20;38.60;;;;;;5024086;28;20568;-70
2023/04/04 12:06:46;;;;;;;17.97;17.03;;;16.40;37.20;;;;;;5022623;28;20585;-70
2023/04/04 12:09:17;;;;;;;17.83;16.73;;;16.70;37.00;;;;;;5021217;28;20464;-70
2023/04/04 12:11:45;;;;;;;17.93;16.93;;;15.60;37.20;;;;;;5013918;28;20495;-71
2023/04/04 12:14:17;;;;;;;18.00;16.90;;;15.80;36.20;;;;;;5023822;28;20519;-69
2023/04/04 12:16:44;;;;;;;17.90;16.90;;;16.10;37.20;;;;;;5017175;28;20461;-70
2023/04/04 12:19:12;;;;;;;18.57;17.27;;;17.00;38.10;;;;;;5021120;28;20801;-72
2023/04/04 12:21:39;;;;;;;17.70;16.70;;;17.00;37.40;;;;;;5022850;28;21025;-71
2023/04/04 12:24:07;;;;;;;18.70;17.23;;;17.40;38.80;;;;;;5025978;28;20901;-71
2023/04/04 12:26:37;;;;;;;18.93;17.63;;;17.70;37.30;;;;;;5022397;28;20552;-72
2023/04/04 12:29:06;;;;;;;18.90;17.60;;;16.40;36.80;;;;;;5015584;28;20836;-71
2023/04/04 12:31:33;;;;;;;19.30;17.77;;;15.40;37.10;;;;;;5022650;28;20551;-70
2023/04/04 12:34:00;;;;;;;18.73;17.63;;;15.00;40.50;;;;;;5023332;28;20472;-71
2023/04/04 12:36:30;;;;;;;19.10;17.60;;;14.90;38.20;;;;;;5018211;28;20512;-71